Time;durP1;ratioP1;P1;durP2;ratioP2;P2;SDS_P1;SDS_P2;PMS_P1;PMS_P2;Temp;Humidity;BMP_temperature;BMP_pressure;BME280_temperature;BME280_humidity;BME280_pressure;Samples;Min_cycle;Max_cycle;Signal;HPM_P1;HPM_P2
2023/08/30 00:00:10;;;;;;;19.38;17.77;;;13.90;99.90;;;;;;5058966;28;20044;-62
2023/08/30 00:02:36;;;;;;;17.65;16.15;;;13.90;99.90;;;;;;5075720;28;20369;-62
2023/08/30 00:05:03;;;;;;;17.23;15.73;;;13.80;99.90;;;;;;5074558;28;20040;-62
2023/08/30 00:07:29;;;;;;;18.35;16.75;;;13.80;99.90;;;;;;5074781;28;20056;-62
2023/08/30 00:09:56;;;;;;;18.98;17.48;;;13.80;99.90;;;;;;5075256;28;20048;-62
2023/08/30 00:12:21;;;;;;;16.35;14.95;;;13.80;99.90;;;;;;5092532;28;20043;-62
2023/08/30 00:14:47;;;;;;;17.65;16.13;;;13.90;99.90;;;;;;5093420;28;20040;-62
2023/08/30 00:17:13;;;;;;;19.20;17.38;;;13.90;99.90;;;;;;5075318;28;20496;-62
2023/08/30 00:19:39;;;;;;;18.50;16.90;;;13.80;99.90;;;;;;5074405;28;20401;-62
2023/08/30 00:22:07;;;;;;;18.50;16.88;;;13.80;99.90;;;;;;5075256;28;20048;-62
2023/08/30 00:24:33;;;;;;;18.05;16.48;;;13.90;99.90;;;;;;5075009;28;20051;-62
2023/08/30 00:27:00;;;;;;;14.25;12.85;;;13.90;99.90;;;;;;5057626;28;20047;-62
2023/08/30 00:29:26;;;;;;;15.93;14.25;;;13.80;99.90;;;;;;5092944;28;20055;-62
2023/08/30 00:31:51;;;;;;;16.50;14.90;;;13.80;99.90;;;;;;5092731;28;20028;-62
2023/08/30 00:34:17;;;;;;;17.85;16.17;;;13.90;99.90;;;;;;5073999;28;20040;-63
2023/08/30 00:36:43;;;;;;;17.05;15.30;;;13.80;99.90;;;;;;5074708;28;20043;-62
2023/08/30 00:39:08;;;;;;;17.10;15.57;;;13.80;99.90;;;;;;5091805;28;20067;-63
2023/08/30 00:41:34;;;;;;;16.48;14.88;;;13.80;99.90;;;;;;5074577;28;20503;-62
2023/08/30 00:44:00;;;;;;;20.13;18.23;;;13.80;99.90;;;;;;5074741;28;20048;-62
2023/08/30 00:46:27;;;;;;;17.92;16.45;;;13.70;99.90;;;;;;5073386;28;20089;-62
2023/08/30 00:48:53;;;;;;;17.83;16.23;;;13.70;99.90;;;;;;5092841;28;20036;-62
2023/08/30 00:51:19;;;;;;;17.35;15.55;;;13.70;99.90;;;;;;5091396;28;20051;-62
2023/08/30 00:53:46;;;;;;;14.60;13.05;;;13.70;99.90;;;;;;5073699;28;20040;-62
2023/08/30 00:56:11;;;;;;;14.38;12.98;;;13.70;99.90;;;;;;5074271;28;20055;-63
2023/08/30 00:58:38;;;;;;;15.02;11.68;;;13.70;99.90;;;;;;5074344;28;20477;-62
2023/08/30 01:01:08;;;;;;;14.52;13.02;;;13.70;99.90;;;;;;5092082;28;20105;-62
2023/08/30 01:03:34;;;;;;;13.50;11.40;;;13.70;99.90;;;;;;5074341;28;20051;-62
2023/08/30 01:06:00;;;;;;;14.50;12.85;;;13.60;99.90;;;;;;5074516;28;20036;-62
2023/08/30 01:08:26;;;;;;;14.20;12.70;;;13.70;99.90;;;;;;5091320;28;20450;-62
2023/08/30 01:11:10;;;;;;;15.00;13.00;;;13.60;99.90;;;;;;5057474;28;20044;-62
2023/08/30 01:13:44;;;;;;;13.65;12.30;;;13.60;99.90;;;;;;5074414;28;20032;-62
2023/08/30 01:16:10;;;;;;;15.02;13.52;;;13.70;99.90;;;;;;5073748;28;20409;-62
2023/08/30 01:18:37;;;;;;;14.35;12.77;;;13.60;99.90;;;;;;5073958;28;20036;-62
2023/08/30 01:21:05;;;;;;;16.25;12.32;;;13.60;99.90;;;;;;5074482;28;20040;-62
2023/08/30 01:23:49;;;;;;;16.08;14.13;;;13.60;99.90;;;;;;5073443;28;20102;-62
2023/08/30 01:26:33;;;;;;;16.27;12.63;;;13.50;99.90;;;;;;5074070;28;20055;-62
2023/08/30 01:29:03;;;;;;;15.77;14.13;;;13.40;99.90;;;;;;5057079;28;20397;-63
2023/08/30 01:31:35;;;;;;;15.60;14.00;;;13.30;99.90;;;;;;5073627;28;20040;-62
2023/08/30 01:34:04;;;;;;;15.85;14.15;;;13.30;99.90;;;;;;5074354;28;20046;-62
2023/08/30 01:36:31;;;;;;;15.05;13.50;;;13.40;99.90;;;;;;5072760;28;20036;-62
2023/08/30 01:38:59;;;;;;;16.35;14.75;;;13.30;99.90;;;;;;5092003;28;20043;-62
2023/08/30 01:41:27;;;;;;;15.30;13.25;;;13.30;99.90;;;;;;5073776;28;20542;-62
2023/08/30 01:43:55;;;;;;;15.43;13.82;;;13.30;99.90;;;;;;5073275;28;20111;-62
2023/08/30 01:46:21;;;;;;;16.92;13.48;;;13.30;99.90;;;;;;5074136;28;20384;-62
2023/08/30 01:48:49;;;;;;;16.45;14.75;;;13.20;99.90;;;;;;5057025;28;20115;-62
2023/08/30 01:51:16;;;;;;;16.67;14.20;;;13.20;99.90;;;;;;5090922;28;20420;-62
2023/08/30 01:53:44;;;;;;;14.40;12.93;;;13.20;99.90;;;;;;5091882;28;20040;-62
2023/08/30 01:56:10;;;;;;;13.77;12.38;;;13.30;99.90;;;;;;5073627;28;20059;-62
2023/08/30 01:58:36;;;;;;;13.05;11.65;;;13.20;99.90;;;;;;5091290;28;20040;-62
2023/08/30 02:01:01;;;;;;;14.50;12.18;;;13.20;99.90;;;;;;5074049;28;20370;-62
2023/08/30 02:03:27;;;;;;;13.70;11.65;;;13.20;99.90;;;;;;5091018;28;20036;-62
2023/08/30 02:06:06;;;;;;;15.25;11.45;;;13.20;99.90;;;;;;5091745;28;20043;-62
2023/08/30 02:08:52;;;;;;;14.55;12.40;;;13.20;99.90;;;;;;5091638;28;20504;-62
2023/08/30 02:11:23;;;;;;;13.70;11.43;;;13.10;99.90;;;;;;5072427;28;20048;-62
2023/08/30 02:13:52;;;;;;;17.20;12.60;;;13.10;99.90;;;;;;5073747;28;20044;-62
2023/08/30 02:16:18;;;;;;;13.73;11.15;;;13.20;99.90;;;;;;5092618;28;20051;-62
2023/08/30 02:18:45;;;;;;;16.20;12.65;;;13.00;99.90;;;;;;5094666;28;20488;-62
2023/08/30 02:21:11;;;;;;;16.42;11.70;;;13.10;99.90;;;;;;5077633;28;20400;-62
2023/08/30 02:23:37;;;;;;;17.25;13.60;;;13.10;99.90;;;;;;5060442;28;20131;-62
2023/08/30 02:26:05;;;;;;;16.02;13.07;;;13.10;99.90;;;;;;5095012;28;20036;-62
2023/08/30 02:28:31;;;;;;;15.70;13.82;;;13.10;99.90;;;;;;5095407;28;20447;-62
2023/08/30 02:30:57;;;;;;;13.90;12.38;;;13.10;99.90;;;;;;5077188;28;20040;-62
2023/08/30 02:33:22;;;;;;;15.75;12.20;;;13.10;99.90;;;;;;5076727;28;20038;-62
2023/08/30 02:35:48;;;;;;;15.50;11.82;;;13.00;99.90;;;;;;5095196;28;20395;-62
2023/08/30 02:38:14;;;;;;;13.93;10.88;;;13.10;99.90;;;;;;5076985;28;20393;-63
2023/08/30 02:40:39;;;;;;;13.45;11.20;;;13.00;99.90;;;;;;5076008;28;20111;-62
2023/08/30 02:43:05;;;;;;;14.35;11.00;;;13.00;99.90;;;;;;5060445;28;20058;-62
2023/08/30 02:45:31;;;;;;;13.80;11.25;;;13.00;99.90;;;;;;5077150;28;20067;-62
2023/08/30 02:47:56;;;;;;;14.13;12.45;;;13.00;99.90;;;;;;5094447;28;20036;-62
2023/08/30 02:50:23;;;;;;;14.02;12.00;;;12.90;99.90;;;;;;5076350;28;20040;-62
2023/08/30 02:52:49;;;;;;;15.82;11.35;;;12.80;99.90;;;;;;5076313;28;20507;-62
2023/08/30 02:55:14;;;;;;;12.40;10.27;;;12.90;99.90;;;;;;5094461;28;20048;-62
2023/08/30 02:57:40;;;;;;;12.48;10.55;;;12.90;99.90;;;;;;5094878;28;20063;-62
2023/08/30 03:00:06;;;;;;;15.55;11.90;;;12.90;99.90;;;;;;5075974;28;20432;-62
2023/08/30 03:02:33;;;;;;;14.35;12.02;;;12.80;99.90;;;;;;5094807;28;20051;-62
2023/08/30 03:04:59;;;;;;;13.10;10.85;;;12.90;99.90;;;;;;5077004;28;20113;-62
2023/08/30 03:07:25;;;;;;;13.50;10.77;;;12.80;99.90;;;;;;5075424;28;20119;-62
2023/08/30 03:09:54;;;;;;;13.27;10.45;;;12.80;99.90;;;;;;5094769;28;20149;-62
2023/08/30 03:12:20;;;;;;;14.68;12.23;;;12.80;99.90;;;;;;5094604;28;20040;-62
2023/08/30 03:14:46;;;;;;;14.55;11.30;;;12.80;99.90;;;;;;5093685;28;20115;-62
2023/08/30 03:17:12;;;;;;;15.38;11.52;;;12.80;99.90;;;;;;5076331;28;20047;-62
2023/08/30 03:19:37;;;;;;;12.10;10.18;;;12.90;99.90;;;;;;5076286;28;20036;-62
2023/08/30 03:22:03;;;;;;;13.85;12.10;;;12.80;99.90;;;;;;5075786;28;20478;-62
2023/08/30 03:24:29;;;;;;;14.13;11.32;;;12.90;99.90;;;;;;5076768;28;20039;-62
2023/08/30 03:26:55;;;;;;;16.00;14.40;;;12.90;99.90;;;;;;5076492;28;20543;-62
2023/08/30 03:29:20;;;;;;;13.93;12.48;;;12.90;99.90;;;;;;5074160;28;20062;-62
2023/08/30 03:31:47;;;;;;;12.38;11.07;;;13.10;99.90;;;;;;5094290;28;20041;-62
2023/08/30 03:34:12;;;;;;;15.00;12.02;;;12.90;99.90;;;;;;5075895;28;20040;-62
2023/08/30 03:36:39;;;;;;;13.27;11.80;;;13.10;99.90;;;;;;5075146;28;20063;-62
2023/08/30 03:39:05;;;;;;;16.17;12.95;;;13.10;99.90;;;;;;5076384;28;20078;-62
2023/08/30 03:41:30;;;;;;;12.85;10.80;;;13.10;99.90;;;;;;5075953;28;20514;-63
2023/08/30 03:43:56;;;;;;;16.20;13.10;;;13.10;99.90;;;;;;5058383;28;20036;-62
2023/08/30 03:46:22;;;;;;;15.45;12.82;;;13.20;99.90;;;;;;5076052;28;20035;-62
2023/08/30 03:48:47;;;;;;;12.48;10.63;;;13.20;99.90;;;;;;5093565;28;20048;-62
2023/08/30 03:51:13;;;;;;;13.93;11.57;;;13.20;99.90;;;;;;5092824;28;20043;-62
2023/08/30 03:53:38;;;;;;;13.40;11.45;;;13.30;99.90;;;;;;5075426;28;20043;-62
2023/08/30 03:56:04;;;;;;;13.73;11.43;;;13.20;99.90;;;;;;5074949;28;20059;-62
2023/08/30 03:58:30;;;;;;;14.27;12.45;;;13.40;99.90;;;;;;5093231;28;20485;-62
2023/08/30 04:00:57;;;;;;;14.43;12.35;;;13.30;99.90;;;;;;5076011;28;20044;-62
2023/08/30 04:03:23;;;;;;;12.63;11.32;;;13.30;99.90;;;;;;5074413;28;20099;-62
2023/08/30 04:05:55;;;;;;;13.90;12.40;;;13.30;99.90;;;;;;5075193;28;20075;-62
2023/08/30 04:08:21;;;;;;;13.73;11.95;;;13.30;99.90;;;;;;5075040;28;20059;-62
2023/08/30 04:10:49;;;;;;;14.52;12.43;;;13.30;99.90;;;;;;5074626;28;20044;-62
2023/08/30 04:13:15;;;;;;;15.65;12.20;;;13.40;99.90;;;;;;5058791;28;20086;-63
2023/08/30 04:15:41;;;;;;;17.10;12.57;;;13.30;99.90;;;;;;5093306;28;20101;-64
2023/08/30 04:18:07;;;;;;;15.88;11.90;;;13.30;99.90;;;;;;5074233;28;20439;-64
2023/08/30 04:20:33;;;;;;;16.05;11.73;;;13.40;99.90;;;;;;5074989;28;20090;-64
2023/08/30 04:23:01;;;;;;;15.10;12.75;;;13.30;99.90;;;;;;5075365;28;20123;-64
2023/08/30 04:25:30;;;;;;;20.65;18.63;;;13.30;99.90;;;;;;5074422;28;20040;-63
2023/08/30 04:27:56;;;;;;;23.73;21.48;;;13.20;99.90;;;;;;5075197;28;20070;-63
2023/08/30 04:30:22;;;;;;;24.95;22.75;;;13.30;99.90;;;;;;5074714;28;20040;-62
2023/08/30 04:32:47;;;;;;;31.63;29.13;;;13.30;99.90;;;;;;5090397;28;20100;-63
2023/08/30 04:35:13;;;;;;;28.60;26.45;;;13.40;99.90;;;;;;5093041;28;20040;-63
2023/08/30 04:37:39;;;;;;;23.55;21.25;;;13.30;99.90;;;;;;5074929;28;20040;-63
2023/08/30 04:40:07;;;;;;;25.15;22.95;;;13.40;99.90;;;;;;5073973;28;20166;-63
2023/08/30 04:42:32;;;;;;;26.05;23.85;;;13.30;99.90;;;;;;5074592;28;20527;-63
2023/08/30 04:45:00;;;;;;;27.08;24.88;;;13.30;99.90;;;;;;5074756;28;20123;-63
2023/08/30 04:47:27;;;;;;;27.85;25.55;;;13.30;99.90;;;;;;5091919;28;20052;-63
2023/08/30 04:49:53;;;;;;;28.08;25.67;;;13.30;99.90;;;;;;5074722;28;20485;-64
2023/08/30 04:52:19;;;;;;;31.08;28.95;;;13.30;99.90;;;;;;5073397;28;20047;-65
2023/08/30 04:54:45;;;;;;;35.83;33.40;;;13.30;99.90;;;;;;5054290;28;20048;-65
2023/08/30 04:57:14;;;;;;;39.33;36.85;;;13.30;99.90;;;;;;5070879;28;20036;-65
2023/08/30 04:59:40;;;;;;;39.05;36.40;;;13.30;99.90;;;;;;5071271;28;20044;-65
2023/08/30 05:02:06;;;;;;;33.45;31.10;;;13.50;99.90;;;;;;5071176;28;20044;-65
2023/08/30 05:04:32;;;;;;;40.67;38.13;;;13.30;99.90;;;;;;5072102;28;20363;-65
2023/08/30 05:06:58;;;;;;;46.45;43.42;;;13.30;99.90;;;;;;5070382;28;20045;-65
2023/08/30 05:09:24;;;;;;;43.67;40.88;;;13.30;99.90;;;;;;5071237;28;20052;-64
2023/08/30 05:11:54;;;;;;;41.42;38.85;;;13.30;99.90;;;;;;5070921;28;20041;-64
2023/08/30 05:14:20;;;;;;;47.78;44.75;;;13.40;99.90;;;;;;5070041;28;20037;-64
2023/08/30 05:16:46;;;;;;;60.13;57.10;;;13.30;99.90;;;;;;5070585;28;20078;-64
2023/08/30 05:19:12;;;;;;;54.45;51.50;;;13.50;99.90;;;;;;5054165;28;20040;-65
2023/08/30 05:21:38;;;;;;;41.42;38.78;;;13.40;99.90;;;;;;5069920;28;20092;-64
2023/08/30 05:24:07;;;;;;;43.20;40.42;;;13.40;99.90;;;;;;5071071;28;20511;-64
2023/08/30 05:26:32;;;;;;;20.10;18.13;;;13.30;99.90;;;;;;5054341;28;20120;-64
2023/08/30 05:28:58;;;;;;;20.60;18.38;;;13.30;99.90;;;;;;5071295;28;20576;-64
2023/08/30 05:31:24;;;;;;;21.67;19.58;;;13.50;99.90;;;;;;5070862;28;20089;-64
2023/08/30 05:33:49;;;;;;;21.42;19.27;;;13.50;99.90;;;;;;5053467;28;20401;-64
2023/08/30 05:36:15;;;;;;;20.23;18.30;;;13.40;99.90;;;;;;5070085;28;20036;-64
2023/08/30 05:38:41;;;;;;;21.40;19.15;;;13.60;99.90;;;;;;5071826;28;20035;-64
2023/08/30 05:41:07;;;;;;;19.40;17.40;;;13.40;99.90;;;;;;5070575;28;20045;-64
2023/08/30 05:43:33;;;;;;;20.50;18.30;;;13.50;99.90;;;;;;5070890;28;20139;-64
2023/08/30 05:46:02;;;;;;;18.35;16.48;;;13.50;99.90;;;;;;5070627;28;20064;-64
2023/08/30 05:48:28;;;;;;;20.83;18.75;;;13.50;99.90;;;;;;5071284;28;20094;-64
2023/08/30 05:50:54;;;;;;;21.88;16.95;;;13.50;99.90;;;;;;5070787;28;20489;-64
2023/08/30 05:53:20;;;;;;;20.08;18.08;;;13.60;99.90;;;;;;5074367;28;20076;-64
2023/08/30 05:55:46;;;;;;;19.75;17.65;;;13.70;99.90;;;;;;5090621;28;20052;-64
2023/08/30 05:58:11;;;;;;;21.88;19.77;;;13.60;99.90;;;;;;5095682;28;20076;-64
2023/08/30 06:00:37;;;;;;;19.45;17.63;;;13.80;99.90;;;;;;5095834;28;20028;-64
2023/08/30 06:03:03;;;;;;;22.40;20.42;;;13.60;99.90;;;;;;5095491;28;20228;-64
2023/08/30 06:05:29;;;;;;;20.92;18.70;;;13.60;99.90;;;;;;5095593;28;20431;-65
2023/08/30 06:07:55;;;;;;;22.50;18.90;;;13.70;99.90;;;;;;5096342;28;20047;-64
2023/08/30 06:10:20;;;;;;;22.38;20.17;;;13.60;99.90;;;;;;5076659;28;20055;-64
2023/08/30 06:12:51;;;;;;;52.65;49.72;;;13.70;99.90;;;;;;5060673;28;20185;-64
2023/08/30 06:15:17;;;;;;;53.97;50.90;;;13.80;99.90;;;;;;5095535;28;20435;-64
2023/08/30 06:17:43;;;;;;;34.33;32.05;;;13.60;99.90;;;;;;5095110;28;20092;-64
2023/08/30 06:20:09;;;;;;;35.80;33.50;;;13.70;99.90;;;;;;5077714;28;20051;-65
2023/08/30 06:22:35;;;;;;;35.40;33.08;;;13.70;99.90;;;;;;5095131;28;20511;-64
2023/08/30 06:25:00;;;;;;;42.78;40.08;;;13.70;99.90;;;;;;5094393;28;20043;-65
2023/08/30 06:27:26;;;;;;;28.95;26.77;;;13.70;99.90;;;;;;5095521;28;20043;-64
2023/08/30 06:29:52;;;;;;;31.33;29.25;;;13.70;99.90;;;;;;5066563;28;20048;-64
2023/08/30 06:32:17;;;;;;;36.67;33.97;;;13.80;99.90;;;;;;5056426;28;20049;-64
2023/08/30 06:34:43;;;;;;;28.55;26.23;;;13.70;99.90;;;;;;5057065;28;20037;-65
2023/08/30 06:37:09;;;;;;;26.42;24.13;;;14.00;99.90;;;;;;5057579;28;20032;-64
2023/08/30 06:39:36;;;;;;;39.90;37.40;;;13.80;99.90;;;;;;5074471;28;20537;-65
2023/08/30 06:42:05;;;;;;;39.72;37.22;;;13.80;99.90;;;;;;5077107;28;20052;-64
2023/08/30 06:44:30;;;;;;;37.03;34.72;;;13.90;99.90;;;;;;5074493;28;20036;-64
2023/08/30 06:46:57;;;;;;;29.70;27.30;;;13.90;99.90;;;;;;5073349;28;20388;-64
2023/08/30 06:49:23;;;;;;;33.15;30.80;;;14.00;99.90;;;;;;5092086;28;20048;-65
2023/08/30 06:51:49;;;;;;;35.08;32.65;;;14.00;99.90;;;;;;5073129;28;20496;-64
2023/08/30 06:54:14;;;;;;;25.15;23.25;;;14.10;99.90;;;;;;5073506;28;20059;-65
2023/08/30 06:56:40;;;;;;;23.05;21.15;;;14.30;99.90;;;;;;5056783;28;20055;-65
2023/08/30 06:59:06;;;;;;;19.48;17.77;;;14.10;99.90;;;;;;5073302;28;20036;-65
2023/08/30 07:01:31;;;;;;;23.52;21.30;;;14.20;99.90;;;;;;5072136;28;20599;-64
2023/08/30 07:03:57;;;;;;;21.63;19.52;;;14.30;99.90;;;;;;5092053;28;20489;-64
2023/08/30 07:06:24;;;;;;;25.30;23.30;;;14.30;99.90;;;;;;5091052;28;20055;-64
2023/08/30 07:08:49;;;;;;;22.85;20.90;;;14.60;99.90;;;;;;5068946;28;20040;-64
2023/08/30 07:11:15;;;;;;;25.08;23.08;;;14.60;99.90;;;;;;5065653;28;20098;-64
2023/08/30 07:13:41;;;;;;;24.02;22.10;;;14.90;99.90;;;;;;5072236;28;20044;-64
2023/08/30 07:16:06;;;;;;;16.33;14.63;;;14.90;99.90;;;;;;5072984;28;20109;-65
2023/08/30 07:18:32;;;;;;;15.45;12.40;;;15.10;99.90;;;;;;5073033;28;20036;-65
2023/08/30 07:20:57;;;;;;;14.57;13.10;;;15.20;99.90;;;;;;5072509;28;20135;-65
2023/08/30 07:23:23;;;;;;;16.85;14.02;;;15.20;99.90;;;;;;5072041;28;20074;-64
2023/08/30 07:25:51;;;;;;;12.27;10.63;;;15.30;99.90;;;;;;5052754;28;20801;-65
2023/08/30 07:28:17;;;;;;;13.05;11.38;;;15.20;99.90;;;;;;5092350;28;20044;-65
2023/08/30 07:30:43;;;;;;;13.82;10.52;;;15.30;99.90;;;;;;5075638;28;20088;-65
2023/08/30 07:33:08;;;;;;;15.07;12.07;;;15.30;99.90;;;;;;5092645;28;20374;-63
2023/08/30 07:35:34;;;;;;;16.70;15.00;;;15.30;99.90;;;;;;5092890;28;20119;-63
2023/08/30 07:38:00;;;;;;;19.02;17.23;;;15.30;99.90;;;;;;5075528;28;20093;-62
2023/08/30 07:40:28;;;;;;;28.88;26.58;;;15.40;99.90;;;;;;5093610;28;20044;-64
2023/08/30 07:42:53;;;;;;;22.70;21.00;;;15.40;99.90;;;;;;5074379;28;20044;-65
2023/08/30 07:45:19;;;;;;;23.67;21.77;;;15.40;99.90;;;;;;5093877;28;20040;-65
2023/08/30 07:47:45;;;;;;;17.80;16.05;;;15.40;99.90;;;;;;5076042;28;20042;-65
2023/08/30 07:50:10;;;;;;;16.25;14.65;;;15.40;99.90;;;;;;5074836;28;20488;-65
2023/08/30 07:52:36;;;;;;;17.13;13.63;;;15.40;99.90;;;;;;5075280;28;20431;-65
2023/08/30 07:55:02;;;;;;;16.42;14.55;;;15.50;99.90;;;;;;5058997;28;20051;-65
2023/08/30 07:57:28;;;;;;;14.52;13.10;;;15.50;99.90;;;;;;5092777;28;20036;-68
2023/08/30 07:59:53;;;;;;;17.83;16.02;;;15.70;99.90;;;;;;5059053;28;20047;-65
2023/08/30 08:02:19;;;;;;;12.80;11.48;;;15.90;99.90;;;;;;5092928;28;20046;-65
2023/08/30 08:04:45;;;;;;;17.88;16.17;;;16.00;99.90;;;;;;5093407;28;20054;-65
2023/08/30 08:07:10;;;;;;;15.32;13.88;;;16.00;99.90;;;;;;5075160;28;20093;-65
2023/08/30 08:09:37;;;;;;;13.88;11.32;;;16.10;99.90;;;;;;5074330;28;20036;-65
2023/08/30 08:12:03;;;;;;;27.88;26.00;;;16.10;99.90;;;;;;5075320;28;20068;-66
2023/08/30 08:14:29;;;;;;;15.70;12.40;;;16.30;99.90;;;;;;5092552;28;20111;-65
2023/08/30 08:16:55;;;;;;;14.43;12.77;;;16.30;99.90;;;;;;5092854;28;20552;-66
2023/08/30 08:19:21;;;;;;;16.00;14.35;;;16.30;99.90;;;;;;5093237;28;20119;-65
2023/08/30 08:21:47;;;;;;;17.88;15.95;;;16.30;99.90;;;;;;5093097;28;20071;-66
2023/08/30 08:24:13;;;;;;;14.35;12.00;;;16.50;99.90;;;;;;5074449;28;20091;-66
2023/08/30 08:26:39;;;;;;;21.33;17.20;;;16.60;99.90;;;;;;5074708;28;20043;-66
2023/08/30 08:29:05;;;;;;;15.38;13.77;;;16.70;99.90;;;;;;5093385;28;20124;-66
2023/08/30 08:31:30;;;;;;;23.88;22.00;;;16.70;99.90;;;;;;5073911;28;20496;-66
2023/08/30 08:34:11;;;;;;;25.52;23.65;;;16.80;99.90;;;;;;5093223;28;20036;-66
2023/08/30 08:36:42;;;;;;;16.35;14.73;;;16.80;99.90;;;;;;5093092;28;20101;-66
2023/08/30 08:39:09;;;;;;;21.30;19.52;;;16.70;99.90;;;;;;5074025;28;20055;-66
2023/08/30 08:41:42;;;;;;;19.48;17.75;;;16.70;99.90;;;;;;5092726;28;20048;-66
2023/08/30 08:44:09;;;;;;;20.48;18.48;;;16.60;99.90;;;;;;5092835;28;20040;-66
2023/08/30 08:46:36;;;;;;;16.25;12.93;;;16.50;99.90;;;;;;5073717;28;20122;-66
2023/08/30 08:49:10;;;;;;;17.45;14.52;;;16.50;99.90;;;;;;5075041;28;20059;-66
2023/08/30 08:51:37;;;;;;;24.77;22.63;;;16.50;99.90;;;;;;5073534;28;20492;-66
2023/08/30 08:54:04;;;;;;;15.43;11.80;;;16.40;99.90;;;;;;5092573;28;20051;-66
2023/08/30 08:56:32;;;;;;;13.95;11.85;;;16.50;99.90;;;;;;5057428;28;20189;-66
2023/08/30 08:58:58;;;;;;;14.02;12.57;;;16.40;99.90;;;;;;5074446;28;20418;-69
2023/08/30 09:01:25;;;;;;;17.65;15.95;;;16.40;99.90;;;;;;5074212;28;20126;-66
2023/08/30 09:03:50;;;;;;;17.83;16.05;;;16.40;99.90;;;;;;5074618;28;20039;-66
2023/08/30 09:06:18;;;;;;;14.75;13.15;;;16.30;99.90;;;;;;5091504;28;20594;-66
2023/08/30 09:08:43;;;;;;;16.20;14.60;;;16.30;99.90;;;;;;5074425;28;20051;-66
2023/08/30 09:11:09;;;;;;;18.35;16.67;;;16.30;99.90;;;;;;5074302;28;20504;-66
2023/08/30 09:13:35;;;;;;;19.00;17.30;;;16.20;99.90;;;;;;5091411;28;20499;-68
2023/08/30 09:16:02;;;;;;;42.20;39.72;;;16.20;99.90;;;;;;5074738;28;20035;-67
2023/08/30 09:18:28;;;;;;;15.00;12.80;;;16.20;99.90;;;;;;5091715;28;20036;-68
2023/08/30 09:21:11;;;;;;;14.45;12.60;;;16.00;99.90;;;;;;5073250;28;20449;-68
2023/08/30 09:23:37;;;;;;;11.68;10.57;;;15.90;99.90;;;;;;5073190;28;20043;-66
2023/08/30 09:26:04;;;;;;;14.05;9.93;;;15.90;99.90;;;;;;5074203;28;20035;-66
2023/08/30 09:28:31;;;;;;;10.85;9.68;;;15.90;99.90;;;;;;5072973;28;20050;-67
2023/08/30 09:31:03;;;;;;;11.35;10.32;;;15.90;99.90;;;;;;5074198;28;20480;-67
2023/08/30 09:33:33;;;;;;;11.70;10.52;;;15.90;99.90;;;;;;5074372;28;20051;-67
2023/08/30 09:36:02;;;;;;;10.40;9.30;;;16.10;99.90;;;;;;5092339;28;20046;-66
2023/08/30 09:38:27;;;;;;;10.23;8.43;;;16.10;99.90;;;;;;5072848;28;20040;-67
2023/08/30 09:41:04;;;;;;;10.57;9.05;;;16.20;99.90;;;;;;5073393;28;20111;-67
2023/08/30 09:43:30;;;;;;;18.52;17.13;;;16.10;99.90;;;;;;5049248;28;20037;-67
2023/08/30 09:45:56;;;;;;;11.65;10.65;;;16.00;99.90;;;;;;5085695;28;20109;-67
2023/08/30 09:48:23;;;;;;;15.18;13.77;;;16.10;99.90;;;;;;5071405;28;20427;-67
2023/08/30 09:50:54;;;;;;;13.95;10.50;;;16.10;99.90;;;;;;5088289;28;20035;-67
2023/08/30 09:53:23;;;;;;;11.48;10.40;;;16.10;99.90;;;;;;5087897;28;20044;-67
2023/08/30 09:55:50;;;;;;;12.20;11.02;;;16.10;99.90;;;;;;5060723;28;20043;-67
2023/08/30 09:58:16;;;;;;;17.55;16.23;;;16.00;99.90;;;;;;5069485;28;20039;-67
2023/08/30 10:00:43;;;;;;;11.90;10.80;;;16.00;99.90;;;;;;5053700;28;20133;-66
2023/08/30 10:03:09;;;;;;;16.08;14.77;;;16.00;99.90;;;;;;5087468;28;20047;-66
2023/08/30 10:05:36;;;;;;;13.38;12.02;;;16.00;99.90;;;;;;5069917;28;20048;-65
2023/08/30 10:08:03;;;;;;;14.82;13.55;;;15.90;99.90;;;;;;5069911;28;20044;-65
2023/08/30 10:10:31;;;;;;;18.58;17.17;;;16.00;99.90;;;;;;5087614;28;20489;-65
2023/08/30 10:12:57;;;;;;;22.70;21.25;;;15.90;99.90;;;;;;5088575;28;20129;-65
2023/08/30 10:15:26;;;;;;;26.02;24.52;;;15.80;99.90;;;;;;5070473;28;20116;-65
2023/08/30 10:17:54;;;;;;;17.85;16.60;;;15.80;99.90;;;;;;5070148;28;20040;-65
2023/08/30 10:20:20;;;;;;;43.67;41.47;;;15.80;99.90;;;;;;5068190;28;20123;-64
2023/08/30 10:22:49;;;;;;;33.35;31.38;;;15.70;99.90;;;;;;5088548;28;20123;-65
2023/08/30 10:25:24;;;;;;;40.35;38.17;;;15.70;99.90;;;;;;5088611;28;20093;-65
2023/08/30 10:27:51;;;;;;;35.08;33.22;;;15.70;99.90;;;;;;5088090;28;20047;-65
2023/08/30 10:30:20;;;;;;;62.70;60.05;;;15.80;99.90;;;;;;5087793;28;20438;-65
2023/08/30 10:32:46;;;;;;;52.50;49.97;;;15.70;99.90;;;;;;5070068;28;20040;-66
2023/08/30 10:35:13;;;;;;;56.90;54.28;;;15.80;99.90;;;;;;5055917;28;20036;-65
2023/08/30 10:37:39;;;;;;;52.45;49.72;;;15.90;99.90;;;;;;5052441;28;20051;-65
2023/08/30 10:40:06;;;;;;;59.22;56.45;;;15.90;99.90;;;;;;5054622;28;20037;-65
2023/08/30 10:42:32;;;;;;;56.83;54.28;;;15.90;99.90;;;;;;5054137;28;20055;-66
2023/08/30 10:44:57;;;;;;;56.00;53.45;;;16.00;99.90;;;;;;5053380;28;20055;-66
2023/08/30 10:47:30;;;;;;;31.05;29.27;;;16.20;99.90;;;;;;5086808;28;20052;-66
2023/08/30 10:49:57;;;;;;;20.88;19.42;;;16.20;99.90;;;;;;5057503;28;20492;-66
2023/08/30 10:52:24;;;;;;;42.08;39.78;;;16.10;99.90;;;;;;5073269;28;20044;-65
2023/08/30 10:54:50;;;;;;;35.17;32.92;;;16.10;99.90;;;;;;5072891;28;20060;-66
2023/08/30 10:57:21;;;;;;;27.17;25.48;;;16.10;99.90;;;;;;5054686;28;20102;-66
2023/08/30 11:00:07;;;;;;;24.88;23.33;;;16.00;99.90;;;;;;5072150;28;20036;-66
2023/08/30 11:02:34;;;;;;;31.65;30.13;;;16.10;99.90;;;;;;5073182;28;20127;-66
2023/08/30 11:05:03;;;;;;;30.33;28.60;;;16.00;99.90;;;;;;5072655;28;20117;-66
2023/08/30 11:07:29;;;;;;;32.63;30.77;;;16.00;99.90;;;;;;5073259;28;20240;-66
2023/08/30 11:09:55;;;;;;;14.98;13.77;;;16.00;99.90;;;;;;5090921;28;20409;-65
2023/08/30 11:12:25;;;;;;;32.90;31.17;;;15.90;99.90;;;;;;5072451;28;20109;-66
2023/08/30 11:14:52;;;;;;;23.75;22.33;;;16.00;99.90;;;;;;5073352;28;20051;-66
2023/08/30 11:17:19;;;;;;;27.88;26.08;;;15.90;99.90;;;;;;5091307;28;20514;-66
2023/08/30 11:19:45;;;;;;;51.20;48.72;;;15.80;99.90;;;;;;5070089;28;20085;-66
2023/08/30 11:22:13;;;;;;;64.68;61.88;;;15.80;99.90;;;;;;5072639;28;20097;-66
2023/08/30 11:24:39;;;;;;;64.53;61.75;;;15.70;99.90;;;;;;5072839;28;20050;-66
2023/08/30 11:27:06;;;;;;;26.10;24.45;;;15.80;99.90;;;;;;5090031;28;20062;-66
2023/08/30 11:29:32;;;;;;;34.72;32.80;;;15.70;99.90;;;;;;5091153;28;20489;-66
2023/08/30 11:31:57;;;;;;;54.33;51.63;;;15.60;99.90;;;;;;5063916;28;20499;-66
2023/08/30 11:34:23;;;;;;;49.35;47.03;;;15.60;99.90;;;;;;5071582;28;20043;-66
2023/08/30 11:36:50;;;;;;;60.30;57.63;;;15.70;99.90;;;;;;5091373;28;20374;-66
2023/08/30 11:39:17;;;;;;;43.13;40.78;;;15.60;99.90;;;;;;5067300;28;20064;-66
2023/08/30 11:41:44;;;;;;;58.47;55.88;;;15.60;99.90;;;;;;5052278;28;20053;-66
2023/08/30 11:44:11;;;;;;;38.97;36.90;;;15.60;99.90;;;;;;5052832;28;20119;-66
2023/08/30 11:46:36;;;;;;;40.63;38.42;;;15.60;99.90;;;;;;5052941;28;20056;-66
2023/08/30 11:49:03;;;;;;;21.90;20.35;;;15.70;99.90;;;;;;5069321;28;20493;-66
2023/08/30 11:51:29;;;;;;;28.67;26.73;;;15.80;99.90;;;;;;5058942;28;20500;-65
2023/08/30 11:53:57;;;;;;;11.32;10.23;;;15.70;99.90;;;;;;5069013;28;20038;-66
2023/08/30 11:56:23;;;;;;;14.02;12.98;;;15.70;99.90;;;;;;5070936;28;20047;-65
2023/08/30 11:58:49;;;;;;;11.15;9.23;;;15.70;99.90;;;;;;5084193;28;20106;-65
2023/08/30 12:01:15;;;;;;;9.43;7.50;;;15.80;99.90;;;;;;5071024;28;20048;-65
2023/08/30 12:03:41;;;;;;;7.75;6.95;;;15.80;99.90;;;;;;5091087;28;20392;-65
2023/08/30 12:06:12;;;;;;;9.07;7.47;;;15.70;99.90;;;;;;5057262;28;20052;-65
2023/08/30 12:08:38;;;;;;;7.75;6.95;;;15.80;99.90;;;;;;5086394;28;20046;-65
2023/08/30 12:11:04;;;;;;;9.45;8.15;;;15.70;99.90;;;;;;5072301;28;20048;-65
2023/08/30 12:13:32;;;;;;;9.32;6.18;;;15.70;99.90;;;;;;5090240;28;20036;-65
2023/08/30 12:15:59;;;;;;;9.52;8.50;;;15.60;99.90;;;;;;5090085;28;20043;-65
2023/08/30 12:18:27;;;;;;;7.55;6.75;;;15.70;99.90;;;;;;5051275;28;20035;-65
2023/08/30 12:20:53;;;;;;;10.07;8.90;;;15.60;99.90;;;;;;5071637;28;20044;-64
2023/08/30 12:23:23;;;;;;;11.35;9.75;;;15.50;99.90;;;;;;5054390;28;20040;-65
2023/08/30 12:26:00;;;;;;;10.75;9.82;;;15.40;99.90;;;;;;5089513;28;20134;-65